createdAt,value
2019-05-13T00:02:23.993Z,7.80
2019-05-13T00:04:53.329Z,7.80
2019-05-13T00:07:23.962Z,7.80
2019-05-13T00:09:54.389Z,7.90
2019-05-13T00:12:24.030Z,7.80
2019-05-13T00:14:53.945Z,7.60
2019-05-13T00:17:23.668Z,7.60
2019-05-13T00:19:53.291Z,7.50
2019-05-13T00:22:23.425Z,7.60
2019-05-13T00:24:54.213Z,7.60
2019-05-13T00:27:23.584Z,7.60
2019-05-13T00:29:53.409Z,7.60
2019-05-13T00:32:23.726Z,7.50
2019-05-13T00:34:53.407Z,7.50
2019-05-13T00:37:24.483Z,7.50
2019-05-13T00:39:54.289Z,7.50
2019-05-13T00:42:24.548Z,7.50
2019-05-13T00:44:53.821Z,7.40
2019-05-13T00:47:23.643Z,7.40
2019-05-13T00:49:54.116Z,7.50
2019-05-13T00:52:23.625Z,7.50
2019-05-13T00:54:53.579Z,7.50
2019-05-13T00:57:23.827Z,7.60
2019-05-13T00:59:54.058Z,7.60
2019-05-13T01:02:24.345Z,7.60
2019-05-13T01:04:53.633Z,7.50
2019-05-13T01:07:28.311Z,7.50
2019-05-13T01:09:53.598Z,7.50
2019-05-13T01:12:23.796Z,7.40
2019-05-13T01:14:53.447Z,7.40
2019-05-13T01:17:23.534Z,7.30
2019-05-13T01:19:53.769Z,7.30
2019-05-13T01:22:23.909Z,7.40
2019-05-13T01:24:54.180Z,7.30
2019-05-13T01:27:23.909Z,7.30
2019-05-13T01:29:53.559Z,7.30
2019-05-13T01:32:23.823Z,7.30
2019-05-13T01:34:53.790Z,7.30
2019-05-13T01:37:32.185Z,7.40
2019-05-13T01:39:54.238Z,7.30
2019-05-13T01:42:24.117Z,7.30
2019-05-13T01:44:53.893Z,7.20
2019-05-13T01:47:24.077Z,7.20
2019-05-13T01:49:54.278Z,7.20
2019-05-13T01:52:23.826Z,7.10
2019-05-13T01:54:54.387Z,7.10
2019-05-13T01:57:23.856Z,7.00
2019-05-13T01:59:53.772Z,7.10
2019-05-13T02:02:24.267Z,7.00
2019-05-13T02:04:53.889Z,7.10
2019-05-13T02:07:24.433Z,7.00
2019-05-13T02:09:53.722Z,7.10
2019-05-13T02:12:24.035Z,7.10
2019-05-13T02:14:53.539Z,7.10
2019-05-13T02:17:23.480Z,7.00
2019-05-13T02:19:54.059Z,7.10
2019-05-13T02:22:24.728Z,7.10
2019-05-13T02:24:54.016Z,7.10
2019-05-13T02:27:24.908Z,7.00
2019-05-13T02:29:54.062Z,7.00
2019-05-13T02:32:23.606Z,7.10
2019-05-13T02:34:53.399Z,7.10
2019-05-13T02:37:43.393Z,7.10
2019-05-13T02:40:13.829Z,7.00
2019-05-13T02:42:43.918Z,6.90
2019-05-13T02:45:13.864Z,6.90
2019-05-13T02:47:44.252Z,6.90
2019-05-13T02:50:13.820Z,7.00
2019-05-13T02:52:44.430Z,7.00
2019-05-13T02:55:13.790Z,6.90
2019-05-13T02:57:43.837Z,7.00
2019-05-13T03:00:13.702Z,7.00
2019-05-13T03:02:43.792Z,6.90
2019-05-13T03:05:14.115Z,7.00
2019-05-13T03:07:43.463Z,7.00
2019-05-13T03:10:14.018Z,7.00
2019-05-13T03:12:43.211Z,7.00
2019-05-13T03:15:13.664Z,7.00
2019-05-13T03:17:53.947Z,7.00
2019-05-13T03:20:23.371Z,6.90
2019-05-13T03:22:52.959Z,6.90
2019-05-13T03:25:22.910Z,7.00
2019-05-13T03:27:54.028Z,7.00
2019-05-13T03:30:25.500Z,7.00
2019-05-13T03:33:01.355Z,7.10
2019-05-13T03:35:26.560Z,7.00
2019-05-13T03:37:56.445Z,7.00
2019-05-13T03:40:27.616Z,7.10
2019-05-13T03:43:02.302Z,7.00
2019-05-13T03:45:32.838Z,7.10
2019-05-13T03:48:04.149Z,7.20
2019-05-13T03:50:34.645Z,7.20
2019-05-13T03:53:03.984Z,7.10
2019-05-13T03:55:33.619Z,7.10
2019-05-13T03:58:03.299Z,7.10
2019-05-13T04:00:33.242Z,7.10
2019-05-13T04:03:03.160Z,7.20
2019-05-13T04:05:33.644Z,7.20
2019-05-13T04:08:23.053Z,7.30
2019-05-13T04:10:52.693Z,7.30
2019-05-13T04:13:23.419Z,7.40
2019-05-13T04:15:53.217Z,7.40
2019-05-13T04:18:23.378Z,7.40
2019-05-13T04:20:53.363Z,7.50
2019-05-13T04:23:23.524Z,7.60
2019-05-13T04:25:53.888Z,7.60
2019-05-13T04:28:23.109Z,7.60
2019-05-13T04:30:52.866Z,7.60
2019-05-13T04:33:23.215Z,7.60
2019-05-13T04:35:53.108Z,7.70
2019-05-13T04:38:23.035Z,7.70
2019-05-13T04:40:53.012Z,7.70
2019-05-13T04:43:23.472Z,7.90
2019-05-13T04:45:52.957Z,8.00
2019-05-13T04:48:22.977Z,8.20
2019-05-13T04:50:53.232Z,8.30
2019-05-13T04:53:23.031Z,8.40
2019-05-13T04:55:52.802Z,8.40
2019-05-13T04:58:23.441Z,8.40
2019-05-13T05:01:23.730Z,8.50
2019-05-13T05:04:11.755Z,8.60
2019-05-13T05:06:44.460Z,8.70
2019-05-13T05:09:42.889Z,8.80
2019-05-13T05:12:42.535Z,8.80
2019-05-13T05:15:43.539Z,8.90
2019-05-13T05:18:36.657Z,9.10
2019-05-13T05:21:17.055Z,9.40
2019-05-13T05:24:04.364Z,9.60
2019-05-13T05:26:52.166Z,9.80
2019-05-13T05:29:43.771Z,9.90
2019-05-13T05:32:39.337Z,10.20
2019-05-13T05:35:32.541Z,10.20
2019-05-13T05:38:07.306Z,10.40
2019-05-13T05:40:38.312Z,10.50
2019-05-13T05:43:08.281Z,10.60
2019-05-13T05:45:58.195Z,10.90
2019-05-13T05:48:31.498Z,10.90
2019-05-13T05:51:02.152Z,11.10
2019-05-13T05:53:32.362Z,11.30
2019-05-13T05:56:03.358Z,11.40
2019-05-13T05:58:34.872Z,11.60
2019-05-13T06:01:04.612Z,11.70
2019-05-13T06:03:36.628Z,11.90
2019-05-13T06:06:06.137Z,12.10
2019-05-13T06:08:35.180Z,12.30
2019-05-13T06:11:04.505Z,12.50
2019-05-13T06:13:34.098Z,12.60
2019-05-13T06:16:03.402Z,12.60
2019-05-13T06:18:32.725Z,12.60
2019-05-13T06:21:01.899Z,12.70
2019-05-13T06:23:31.368Z,12.90
2019-05-13T06:26:01.910Z,13.00
2019-05-13T06:28:32.264Z,13.30
2019-05-13T06:31:02.509Z,13.40
2019-05-13T06:33:31.904Z,13.50
2019-05-13T06:36:01.284Z,13.40
2019-05-13T06:38:31.577Z,13.10
2019-05-13T06:41:07.142Z,13.20
2019-05-13T06:43:31.694Z,13.30
2019-05-13T06:46:01.888Z,13.60
2019-05-13T06:48:32.301Z,13.70
2019-05-13T06:51:02.606Z,14.10
2019-05-13T06:53:32.234Z,14.60
2019-05-13T06:56:01.622Z,14.60
2019-05-13T06:58:32.501Z,14.70
2019-05-13T07:01:03.785Z,14.80
2019-05-13T07:03:32.478Z,15.00
2019-05-13T07:06:01.911Z,15.10
2019-05-13T07:08:31.517Z,15.10
2019-05-13T07:11:17.087Z,15.20
2019-05-13T07:13:32.248Z,15.30
2019-05-13T07:16:01.550Z,15.20
2019-05-13T07:18:32.361Z,15.20
2019-05-13T07:21:02.183Z,15.20
2019-05-13T07:23:31.995Z,15.00
2019-05-13T07:26:01.944Z,15.20
2019-05-13T07:28:32.289Z,15.40
2019-05-13T07:31:02.286Z,15.70
2019-05-13T07:33:32.212Z,15.50
2019-05-13T07:36:03.153Z,15.70
2019-05-13T07:38:32.765Z,15.60
2019-05-13T07:41:05.249Z,15.70
2019-05-13T07:43:34.347Z,15.60
2019-05-13T07:46:03.480Z,15.70
2019-05-13T07:48:32.592Z,16.10
2019-05-13T07:51:04.508Z,16.10
2019-05-13T07:53:32.479Z,16.20
2019-05-13T07:56:02.053Z,16.40
2019-05-13T07:58:36.566Z,16.50
2019-05-13T08:01:02.558Z,16.60
2019-05-13T08:03:31.957Z,16.70
2019-05-13T08:06:01.972Z,16.70
2019-05-13T08:08:32.352Z,16.70
2019-05-13T08:11:01.624Z,16.70
2019-05-13T08:13:31.430Z,16.70
2019-05-13T08:16:01.914Z,17.10
2019-05-13T08:18:32.034Z,17.00
2019-05-13T08:21:02.006Z,17.10
2019-05-13T08:23:32.348Z,16.60
2019-05-13T08:26:02.348Z,16.70
2019-05-13T08:28:32.493Z,16.70
2019-05-13T08:31:02.131Z,17.00
2019-05-13T08:33:32.236Z,17.00
2019-05-13T08:36:01.818Z,16.80
2019-05-13T08:38:31.858Z,16.60
2019-05-13T08:41:01.889Z,16.70
2019-05-13T08:43:31.760Z,16.70
2019-05-13T08:46:02.032Z,16.80
2019-05-13T08:48:32.356Z,16.50
2019-05-13T08:51:03.103Z,16.50
2019-05-13T08:53:32.466Z,17.00
2019-05-13T08:56:01.800Z,16.80
2019-05-13T08:58:31.999Z,17.30
2019-05-13T09:01:02.165Z,17.30
2019-05-13T09:03:32.626Z,17.00
2019-05-13T09:06:02.977Z,16.90
2019-05-13T09:08:32.320Z,17.20
2019-05-13T09:11:01.684Z,17.50
2019-05-13T09:13:32.972Z,17.40
2019-05-13T09:16:02.602Z,16.80
2019-05-13T09:18:32.295Z,17.00
2019-05-13T09:21:02.785Z,17.50
2019-05-13T09:23:31.980Z,17.30
2019-05-13T09:26:04.107Z,17.20
2019-05-13T09:28:33.169Z,17.10
2019-05-13T09:31:02.368Z,17.60
2019-05-13T09:33:32.588Z,17.30
2019-05-13T09:36:02.376Z,17.30
2019-05-13T09:38:32.619Z,17.60
2019-05-13T09:41:02.331Z,17.50
2019-05-13T09:43:31.736Z,17.80
2019-05-13T09:46:01.829Z,17.60
2019-05-13T09:48:31.959Z,17.40
2019-05-13T09:51:02.462Z,17.50
2019-05-13T09:53:32.765Z,17.30
2019-05-13T09:56:02.506Z,17.50
2019-05-13T09:58:34.011Z,17.70
2019-05-13T10:01:03.093Z,17.60
2019-05-13T10:03:32.997Z,18.00
2019-05-13T10:06:02.783Z,17.80
2019-05-13T10:08:32.779Z,17.90
2019-05-13T10:11:02.048Z,17.60
2019-05-13T10:13:31.716Z,17.80
2019-05-13T10:16:01.256Z,17.80
2019-05-13T10:18:32.640Z,17.80
2019-05-13T10:21:02.531Z,17.70
2019-05-13T10:23:33.046Z,18.10
2019-05-13T10:26:05.611Z,18.10
2019-05-13T10:28:34.940Z,18.40
2019-05-13T10:31:04.596Z,18.30
2019-05-13T10:33:33.628Z,18.20
2019-05-13T10:36:03.891Z,18.00
2019-05-13T10:38:33.299Z,18.30
2019-05-13T10:41:03.435Z,18.40
2019-05-13T10:43:33.155Z,18.80
2019-05-13T10:46:03.119Z,18.80
2019-05-13T10:48:32.409Z,18.60
2019-05-13T10:51:02.223Z,18.90
2019-05-13T10:53:32.197Z,19.00
2019-05-13T10:56:03.329Z,18.70
2019-05-13T10:58:32.398Z,18.50
2019-05-13T11:01:02.900Z,18.50
2019-05-13T11:03:32.915Z,18.20
2019-05-13T11:06:05.202Z,18.30
2019-05-13T11:08:34.245Z,18.20
2019-05-13T11:11:03.601Z,18.60
2019-05-13T11:13:50.577Z,18.10
2019-05-13T11:16:03.507Z,18.10
2019-05-13T11:18:32.702Z,18.10
2019-05-13T11:21:02.408Z,18.60
2019-05-13T11:23:32.242Z,18.10
2019-05-13T11:26:03.057Z,17.80
2019-05-13T11:28:32.990Z,18.00
2019-05-13T11:31:03.191Z,18.30
2019-05-13T11:33:32.802Z,18.30
2019-05-13T11:36:03.213Z,18.80
2019-05-13T11:38:33.019Z,18.40
2019-05-13T11:41:03.109Z,17.90
2019-05-13T11:43:33.115Z,18.30
2019-05-13T11:46:02.994Z,18.50
2019-05-13T11:48:32.671Z,18.20
2019-05-13T11:51:03.975Z,17.70
2019-05-13T11:53:34.567Z,18.10
2019-05-13T11:56:03.829Z,17.80
2019-05-13T11:58:33.367Z,18.00
2019-05-13T12:01:03.192Z,18.50
2019-05-13T12:03:32.747Z,18.70
2019-05-13T12:06:02.609Z,19.10
2019-05-13T12:08:33.956Z,19.40
2019-05-13T12:11:04.148Z,19.20
2019-05-13T12:13:33.846Z,19.20
2019-05-13T12:16:03.869Z,19.20
2019-05-13T12:18:33.175Z,19.60
2019-05-13T12:21:03.239Z,19.30
2019-05-13T12:23:33.065Z,19.40
2019-05-13T12:26:04.075Z,19.90
2019-05-13T12:28:33.275Z,19.20
2019-05-13T12:31:03.199Z,19.30
2019-05-13T12:33:32.996Z,19.40
2019-05-13T12:36:02.382Z,19.60
2019-05-13T12:38:33.202Z,18.80
2019-05-13T12:41:05.334Z,18.80
2019-05-13T12:43:33.157Z,19.30
2019-05-13T12:46:02.600Z,19.60
2019-05-13T12:48:31.867Z,19.20
2019-05-13T12:51:03.034Z,18.20
2019-05-13T12:53:32.310Z,18.40
2019-05-13T12:56:03.203Z,18.60
2019-05-13T12:58:34.016Z,18.60
2019-05-13T13:01:03.558Z,19.00
2019-05-13T13:03:32.646Z,18.60
2019-05-13T13:06:22.667Z,18.70
2019-05-13T13:08:42.855Z,19.00
2019-05-13T13:11:03.270Z,18.70
2019-05-13T13:13:54.078Z,18.30
2019-05-13T13:16:03.739Z,18.00
2019-05-13T13:18:33.006Z,18.10
2019-05-13T13:21:07.009Z,17.70
2019-05-13T13:23:34.017Z,18.20
2019-05-13T13:26:03.772Z,18.60
2019-05-13T13:28:34.199Z,18.20
2019-05-13T13:31:04.470Z,18.30
2019-05-13T13:33:34.515Z,18.40
2019-05-13T13:36:05.105Z,18.60
2019-05-13T13:38:34.641Z,17.90
2019-05-13T13:41:04.371Z,17.70
2019-05-13T13:43:36.846Z,17.70
2019-05-13T13:46:11.567Z,18.20
2019-05-13T13:48:35.267Z,18.30
2019-05-13T13:51:05.218Z,19.20
2019-05-13T13:53:34.539Z,19.20
2019-05-13T13:56:03.977Z,18.50
2019-05-13T13:58:33.149Z,18.60
2019-05-13T14:01:11.584Z,19.00
2019-05-13T14:03:34.789Z,18.90
2019-05-13T14:06:06.341Z,18.90
2019-05-13T14:08:37.471Z,18.10
2019-05-13T14:11:06.523Z,18.00
2019-05-13T14:13:35.544Z,18.70
2019-05-13T14:16:04.651Z,18.40
2019-05-13T14:18:33.701Z,18.70
2019-05-13T14:21:03.493Z,18.60
2019-05-13T14:23:32.735Z,18.30
2019-05-13T14:26:01.805Z,18.10
2019-05-13T14:28:32.809Z,18.40
2019-05-13T14:31:02.039Z,17.60
2019-05-13T14:33:34.813Z,17.10
2019-05-13T14:36:01.965Z,17.20
2019-05-13T14:38:32.512Z,17.20
2019-05-13T14:41:03.482Z,17.30
2019-05-13T14:43:33.804Z,17.60
2019-05-13T14:46:03.025Z,17.00
2019-05-13T14:48:33.093Z,16.50
2019-05-13T14:51:02.580Z,16.20
2019-05-13T14:53:32.515Z,16.50
2019-05-13T14:56:02.917Z,17.00
2019-05-13T14:58:32.803Z,16.60
2019-05-13T15:01:12.588Z,16.90
2019-05-13T15:03:33.116Z,17.40
2019-05-13T15:06:04.370Z,17.20
2019-05-13T15:08:33.475Z,17.60
2019-05-13T15:11:02.532Z,17.90
2019-05-13T15:13:32.215Z,18.00
2019-05-13T15:16:01.533Z,17.90
2019-05-13T15:18:32.694Z,18.30
2019-05-13T15:21:01.826Z,18.50
2019-05-13T15:23:31.838Z,18.20
2019-05-13T15:26:02.161Z,18.00
2019-05-13T15:28:31.954Z,18.30
2019-05-13T15:31:01.314Z,17.80
2019-05-13T15:33:32.772Z,17.60
2019-05-13T15:36:02.098Z,17.30
2019-05-13T15:38:32.031Z,17.40
2019-05-13T15:41:02.122Z,17.80
2019-05-13T15:43:32.099Z,17.80
2019-05-13T15:46:04.053Z,17.10
2019-05-13T15:48:32.204Z,16.70
2019-05-13T15:51:02.085Z,16.60
2019-05-13T15:53:32.249Z,16.20
2019-05-13T15:56:02.641Z,16.80
2019-05-13T15:58:39.607Z,16.70
2019-05-13T16:01:03.145Z,16.60
2019-05-13T16:03:32.344Z,16.60
2019-05-13T16:06:01.854Z,16.40
2019-05-13T16:08:32.047Z,16.60
2019-05-13T16:11:02.216Z,16.80
2019-05-13T16:13:31.943Z,17.10
2019-05-13T16:16:01.747Z,16.60
2019-05-13T16:18:31.624Z,16.50
2019-05-13T16:21:01.727Z,16.60
2019-05-13T16:23:32.299Z,16.00
2019-05-13T16:26:02.011Z,15.90
2019-05-13T16:28:32.635Z,16.20
2019-05-13T16:31:02.499Z,15.90
2019-05-13T16:33:31.752Z,15.80
2019-05-13T16:36:04.452Z,15.90
2019-05-13T16:38:33.521Z,16.30
2019-05-13T16:41:06.288Z,16.20
2019-05-13T16:43:35.503Z,15.80
2019-05-13T16:46:07.145Z,15.90
2019-05-13T16:48:35.337Z,15.80
2019-05-13T16:51:04.401Z,15.90
2019-05-13T16:53:33.496Z,15.50
2019-05-13T16:56:02.604Z,15.10
2019-05-13T16:58:32.372Z,14.70
2019-05-13T17:01:02.703Z,14.30
2019-05-13T17:03:32.073Z,14.40
2019-05-13T17:06:02.171Z,14.50
2019-05-13T17:08:32.049Z,14.50
2019-05-13T17:11:02.148Z,14.70
2019-05-13T17:13:31.652Z,14.80
2019-05-13T17:16:01.686Z,14.50
2019-05-13T17:18:32.533Z,14.60
2019-05-13T17:21:01.812Z,14.70
2019-05-13T17:23:30.864Z,14.40
2019-05-13T17:26:01.940Z,14.50
2019-05-13T17:28:33.504Z,14.50
2019-05-13T17:31:02.148Z,14.50
2019-05-13T17:33:41.216Z,14.60
2019-05-13T17:36:21.696Z,14.50
2019-05-13T17:38:50.443Z,14.40
2019-05-13T17:41:21.255Z,14.00
2019-05-13T17:43:51.817Z,13.90
2019-05-13T17:46:21.872Z,14.00
2019-05-13T17:48:52.031Z,14.00
2019-05-13T17:51:22.571Z,13.90
2019-05-13T17:53:52.074Z,13.60
2019-05-13T17:56:21.778Z,13.30
2019-05-13T17:58:50.874Z,13.10
2019-05-13T18:01:21.190Z,12.80
2019-05-13T18:03:51.744Z,12.60
2019-05-13T18:06:21.031Z,12.60
2019-05-13T18:08:51.802Z,12.60
2019-05-13T18:11:21.940Z,12.70
2019-05-13T18:13:51.842Z,12.50
2019-05-13T18:16:21.728Z,12.40
2019-05-13T18:18:52.104Z,12.30
2019-05-13T18:21:21.472Z,12.40
2019-05-13T18:23:52.143Z,12.40
2019-05-13T18:26:21.771Z,12.50
2019-05-13T18:28:51.451Z,12.30
2019-05-13T18:31:24.299Z,12.20
2019-05-13T18:33:51.553Z,12.30
2019-05-13T18:36:22.274Z,12.20
2019-05-13T18:38:51.492Z,12.20
2019-05-13T18:41:21.352Z,12.30
2019-05-13T18:43:52.912Z,12.30
2019-05-13T18:46:22.040Z,12.20
2019-05-13T18:48:58.632Z,12.20
2019-05-13T18:51:21.848Z,12.20
2019-05-13T18:53:51.944Z,12.20
2019-05-13T18:56:21.778Z,12.20
2019-05-13T18:58:51.042Z,12.20
2019-05-13T19:01:21.567Z,12.00
2019-05-13T19:03:50.786Z,11.90
2019-05-13T19:06:22.187Z,11.80
2019-05-13T19:08:52.690Z,11.80
2019-05-13T19:11:22.289Z,11.70
2019-05-13T19:13:52.787Z,11.60
2019-05-13T19:16:21.918Z,11.50
2019-05-13T19:18:50.967Z,11.30
2019-05-13T19:21:21.914Z,11.30
2019-05-13T19:23:51.364Z,11.30
2019-05-13T19:26:21.807Z,11.30
2019-05-13T19:28:51.624Z,11.20
2019-05-13T19:31:22.109Z,11.20
2019-05-13T19:33:52.031Z,11.20
2019-05-13T19:36:21.348Z,11.20
2019-05-13T19:38:51.278Z,11.10
2019-05-13T19:41:22.264Z,11.00
2019-05-13T19:43:52.932Z,10.90
2019-05-13T19:46:21.996Z,10.90
2019-05-13T19:48:52.179Z,10.90
2019-05-13T19:51:21.719Z,10.90
2019-05-13T19:53:51.640Z,10.80
2019-05-13T19:56:21.481Z,10.80
2019-05-13T19:58:50.688Z,10.80
2019-05-13T20:01:21.713Z,10.70
2019-05-13T20:03:51.618Z,10.70
2019-05-13T20:06:21.397Z,10.70
2019-05-13T20:08:51.777Z,10.70
2019-05-13T20:11:21.815Z,10.60
2019-05-13T20:13:52.117Z,10.40
2019-05-13T20:16:22.203Z,10.40
2019-05-13T20:18:51.825Z,10.40
2019-05-13T20:21:21.169Z,10.40
2019-05-13T20:23:51.881Z,10.30
2019-05-13T20:26:21.643Z,10.30
2019-05-13T20:28:51.310Z,10.40
2019-05-13T20:31:21.683Z,10.40
2019-05-13T20:33:51.578Z,10.30
2019-05-13T20:36:22.274Z,10.20
2019-05-13T20:38:51.710Z,10.20
2019-05-13T20:41:22.401Z,10.10
2019-05-13T20:43:52.218Z,10.10
2019-05-13T20:46:23.117Z,10.10
2019-05-13T20:48:52.400Z,10.10
2019-05-13T20:51:21.923Z,10.00
2019-05-13T20:53:51.830Z,10.00
2019-05-13T20:56:21.550Z,10.00
2019-05-13T20:58:51.578Z,9.90
2019-05-13T21:01:20.903Z,9.90
2019-05-13T21:03:51.580Z,9.80
2019-05-13T21:06:22.122Z,9.80
2019-05-13T21:08:52.145Z,9.70
2019-05-13T21:11:21.403Z,9.70
2019-05-13T21:13:51.737Z,9.60
2019-05-13T21:16:21.930Z,9.60
2019-05-13T21:18:51.082Z,9.40
2019-05-13T21:21:22.053Z,9.50
2019-05-13T21:23:52.185Z,9.40
2019-05-13T21:26:31.450Z,9.40
2019-05-13T21:29:01.590Z,9.40
2019-05-13T21:31:30.780Z,9.30
2019-05-13T21:34:01.373Z,9.30
2019-05-13T21:36:32.120Z,9.30
2019-05-13T21:39:01.658Z,9.20
2019-05-13T21:41:31.639Z,9.20
2019-05-13T21:44:01.278Z,9.10
2019-05-13T21:46:30.582Z,9.00
2019-05-13T21:49:01.055Z,9.00
2019-05-13T21:51:31.473Z,9.00
2019-05-13T21:54:11.816Z,8.90
2019-05-13T21:56:42.590Z,9.00
2019-05-13T21:59:11.573Z,9.00
2019-05-13T22:01:42.223Z,9.00
2019-05-13T22:04:12.421Z,8.90
2019-05-13T22:06:41.638Z,8.90
2019-05-13T22:09:12.431Z,8.90
2019-05-13T22:11:42.070Z,8.80
2019-05-13T22:14:11.534Z,8.80
2019-05-13T22:16:41.208Z,8.80
2019-05-13T22:19:12.233Z,8.70
2019-05-13T22:21:42.378Z,8.60
2019-05-13T22:24:11.827Z,8.60
2019-05-13T22:26:41.940Z,8.60
2019-05-13T22:29:11.358Z,8.60
2019-05-13T22:31:41.990Z,8.50
2019-05-13T22:34:12.181Z,8.60
2019-05-13T22:36:41.440Z,8.60
2019-05-13T22:39:11.514Z,8.60
2019-05-13T22:41:42.138Z,8.60
2019-05-13T22:44:11.813Z,8.60
2019-05-13T22:46:41.412Z,8.60
2019-05-13T22:49:11.694Z,8.60
2019-05-13T22:51:41.303Z,8.50
2019-05-13T22:54:11.833Z,8.50
2019-05-13T22:56:41.385Z,8.50
2019-05-13T22:59:12.277Z,8.30
2019-05-13T23:01:42.072Z,8.20
2019-05-13T23:04:11.615Z,8.00
2019-05-13T23:06:40.735Z,8.00
2019-05-13T23:09:12.329Z,8.00
2019-05-13T23:11:41.817Z,8.00
2019-05-13T23:14:13.478Z,7.90
2019-05-13T23:16:42.179Z,7.90
2019-05-13T23:19:11.513Z,7.90
2019-05-13T23:21:41.849Z,7.80
2019-05-13T23:24:11.391Z,7.90
2019-05-13T23:26:42.229Z,7.90
2019-05-13T23:29:11.395Z,7.90
2019-05-13T23:31:41.500Z,7.90
2019-05-13T23:34:12.061Z,7.90
2019-05-13T23:36:42.265Z,7.90
2019-05-13T23:39:11.784Z,7.90
2019-05-13T23:41:41.578Z,7.80
2019-05-13T23:44:24.236Z,7.70
2019-05-13T23:46:42.062Z,7.70
2019-05-13T23:49:11.866Z,7.70
2019-05-13T23:51:41.490Z,7.70
2019-05-13T23:54:12.246Z,7.70
2019-05-13T23:56:41.766Z,7.60
2019-05-13T23:59:11.380Z,7.60
